Time;durP1;ratioP1;P1;durP2;ratioP2;P2;SDS_P1;SDS_P2;PMS_P1;PMS_P2;Temp;Humidity;BMP_temperature;BMP_pressure;BME280_temperature;BME280_humidity;BME280_pressure;Samples;Min_cycle;Max_cycle;Signal;HPM_P1;HPM_P2
2023/03/18 00:01:15;;;;;;;11.93;7.75;;;10.90;76.60;;;;;;5039270;28;20029;-45
2023/03/18 00:03:42;;;;;;;12.15;8.07;;;10.90;76.40;;;;;;5032598;28;20379;-49
2023/03/18 00:06:20;;;;;;;11.38;8.77;;;11.00;76.40;;;;;;5047306;28;20038;-45
2023/03/18 00:08:48;;;;;;;14.43;8.50;;;10.90;76.60;;;;;;5033620;28;20033;-46
2023/03/18 00:11:22;;;;;;;11.02;7.88;;;10.90;76.60;;;;;;5052187;28;20343;-46
2023/03/18 00:13:49;;;;;;;10.10;7.70;;;10.90;76.70;;;;;;5035573;28;20025;-45
2023/03/18 00:16:15;;;;;;;10.40;8.10;;;10.90;76.70;;;;;;5050789;28;20466;-46
2023/03/18 00:18:43;;;;;;;9.88;7.85;;;10.90;76.90;;;;;;5045692;28;20367;-47
2023/03/18 00:21:12;;;;;;;11.65;8.82;;;10.90;77.10;;;;;;5051290;28;20075;-48
2023/03/18 00:23:38;;;;;;;12.13;8.50;;;10.90;77.10;;;;;;5056361;28;20029;-47
2023/03/18 00:26:07;;;;;;;11.63;7.65;;;10.90;77.20;;;;;;5055462;28;20044;-47
2023/03/18 00:28:38;;;;;;;10.55;7.95;;;10.90;77.10;;;;;;5037071;28;20152;-46
2023/03/18 00:31:07;;;;;;;9.55;7.57;;;10.90;77.20;;;;;;5051163;28;20029;-49
2023/03/18 00:33:36;;;;;;;11.75;8.50;;;10.90;77.20;;;;;;5052434;28;20045;-45
2023/03/18 00:36:03;;;;;;;12.45;8.75;;;10.90;77.30;;;;;;5018672;28;20079;-46
2023/03/18 00:38:29;;;;;;;9.93;7.85;;;10.90;77.40;;;;;;5036141;28;20021;-46
2023/03/18 00:41:10;;;;;;;11.38;8.27;;;10.80;77.70;;;;;;5036664;28;20402;-47
2023/03/18 00:43:45;;;;;;;10.13;8.05;;;10.80;77.80;;;;;;5036082;28;20044;-46
2023/03/18 00:46:28;;;;;;;13.65;8.50;;;10.80;78.00;;;;;;5035873;28;20035;-47
2023/03/18 00:48:57;;;;;;;14.48;8.90;;;10.80;78.00;;;;;;5049741;28;20033;-51
2023/03/18 00:51:35;;;;;;;10.80;7.77;;;10.70;78.20;;;;;;5054982;28;20032;-49
2023/03/18 00:54:18;;;;;;;12.25;7.57;;;10.70;78.20;;;;;;5039417;28;20033;-49
2023/03/18 00:56:44;;;;;;;15.45;7.90;;;10.80;78.00;;;;;;5049641;28;20137;-46
2023/03/18 00:59:12;;;;;;;13.95;8.90;;;10.70;78.00;;;;;;5034746;28;20178;-47
2023/03/18 01:01:39;;;;;;;10.10;8.18;;;10.70;78.00;;;;;;5035975;28;20061;-47
2023/03/18 01:04:08;;;;;;;9.32;7.55;;;10.70;78.00;;;;;;5017865;28;20048;-50
2023/03/18 01:06:37;;;;;;;9.93;7.45;;;10.70;78.20;;;;;;5054078;28;20025;-46
2023/03/18 01:09:07;;;;;;;8.02;6.53;;;10.70;78.20;;;;;;5049650;28;20055;-49
2023/03/18 01:11:34;;;;;;;10.05;7.07;;;10.70;78.10;;;;;;5036411;28;20033;-49
2023/03/18 01:14:03;;;;;;;10.32;6.90;;;10.70;78.10;;;;;;5035923;28;20099;-45
2023/03/18 01:16:29;;;;;;;10.43;6.40;;;10.70;78.10;;;;;;5054033;28;20053;-48
2023/03/18 01:18:56;;;;;;;15.88;7.45;;;10.70;78.00;;;;;;5053007;28;20029;-47
2023/03/18 01:21:22;;;;;;;9.65;7.82;;;10.70;78.10;;;;;;5052878;28;20090;-51
2023/03/18 01:23:50;;;;;;;10.80;6.65;;;10.70;78.10;;;;;;5055135;28;20029;-47
2023/03/18 01:26:18;;;;;;;10.75;7.45;;;10.60;78.10;;;;;;5054999;28;20098;-49
2023/03/18 01:28:46;;;;;;;10.50;6.82;;;10.70;78.10;;;;;;5046013;28;20037;-47
2023/03/18 01:31:14;;;;;;;9.15;6.72;;;10.70;78.20;;;;;;5035328;28;20338;-46
2023/03/18 01:33:41;;;;;;;10.75;6.75;;;10.60;78.20;;;;;;5038952;28;20055;-47
2023/03/18 01:36:09;;;;;;;9.98;6.75;;;10.60;78.30;;;;;;5054784;28;20037;-49
2023/03/18 01:38:36;;;;;;;9.65;6.78;;;10.60;78.50;;;;;;5054978;28;20032;-46
2023/03/18 01:41:05;;;;;;;9.55;6.72;;;10.60;78.50;;;;;;5054784;28;20029;-48
2023/03/18 01:43:37;;;;;;;9.57;6.57;;;10.60;78.50;;;;;;5045099;28;20056;-49
2023/03/18 01:46:41;;;;;;;13.02;6.72;;;10.70;78.40;;;;;;5034456;28;20453;-47
2023/03/18 01:49:33;;;;;;;9.13;6.03;;;10.60;78.40;;;;;;5031884;28;20029;-48
2023/03/18 01:52:20;;;;;;;8.85;6.13;;;10.60;78.50;;;;;;5033645;28;20136;-48
2023/03/18 01:54:57;;;;;;;8.90;6.30;;;10.70;78.40;;;;;;5034755;28;20067;-52
2023/03/18 01:57:25;;;;;;;9.73;6.43;;;10.60;78.40;;;;;;5033425;28;20033;-46
2023/03/18 01:59:56;;;;;;;10.35;6.43;;;10.70;78.50;;;;;;5034672;28;20017;-48
2023/03/18 02:02:23;;;;;;;8.73;5.78;;;10.60;78.50;;;;;;5034468;28;20620;-48
2023/03/18 02:04:54;;;;;;;9.30;5.95;;;10.70;78.50;;;;;;5033803;28;20053;-46
2023/03/18 02:07:43;;;;;;;9.85;5.72;;;10.70;78.50;;;;;;5033074;28;20029;-49
2023/03/18 02:10:13;;;;;;;7.35;5.18;;;10.70;78.50;;;;;;5034521;28;20022;-48
2023/03/18 02:12:49;;;;;;;11.15;6.88;;;10.70;78.70;;;;;;5034591;28;20072;-50
2023/03/18 02:15:24;;;;;;;9.38;5.20;;;10.70;78.80;;;;;;5032710;28;20053;-46
2023/03/18 02:18:15;;;;;;;9.48;5.45;;;10.60;78.80;;;;;;5020939;28;20099;-50
2023/03/18 02:21:08;;;;;;;8.85;5.88;;;10.70;78.80;;;;;;5033298;28;20324;-52
2023/03/18 02:23:51;;;;;;;10.35;6.40;;;10.60;79.10;;;;;;5034265;28;20025;-48
2023/03/18 02:26:36;;;;;;;8.38;6.28;;;10.60;79.20;;;;;;5033420;28;20037;-48
2023/03/18 02:29:05;;;;;;;9.48;6.05;;;10.60;79.40;;;;;;5034058;28;20436;-49
2023/03/18 02:31:35;;;;;;;7.90;4.88;;;10.60;79.60;;;;;;5032564;28;20099;-49
2023/03/18 02:34:05;;;;;;;10.30;5.97;;;10.60;79.60;;;;;;5016806;28;20038;-48
2023/03/18 02:36:37;;;;;;;10.25;5.55;;;10.60;79.60;;;;;;5033904;28;20064;-52
2023/03/18 02:39:05;;;;;;;7.57;5.25;;;10.60;79.70;;;;;;5033832;28;20473;-47
2023/03/18 02:41:34;;;;;;;11.45;5.55;;;10.60;79.70;;;;;;5024389;28;20117;-47
2023/03/18 02:44:11;;;;;;;10.00;6.00;;;10.60;79.80;;;;;;5034029;28;20032;-46
2023/03/18 02:46:49;;;;;;;9.98;5.00;;;10.60;79.90;;;;;;5049662;28;20032;-50
2023/03/18 02:49:19;;;;;;;7.60;5.28;;;10.50;79.90;;;;;;5041353;28;20040;-45
2023/03/18 02:51:48;;;;;;;6.78;5.13;;;10.50;80.00;;;;;;5032823;28;20041;-49
2023/03/18 02:54:20;;;;;;;7.72;5.30;;;10.50;80.20;;;;;;5044812;28;20033;-47
2023/03/18 02:56:48;;;;;;;11.00;5.72;;;10.40;80.40;;;;;;5051040;28;20153;-48
2023/03/18 02:59:17;;;;;;;8.05;5.10;;;10.50;80.50;;;;;;5035999;28;20517;-48
2023/03/18 03:01:46;;;;;;;7.85;4.40;;;10.40;80.70;;;;;;5052719;28;20358;-48
2023/03/18 03:04:14;;;;;;;8.52;4.68;;;10.50;80.70;;;;;;5016676;28;20026;-49
2023/03/18 03:06:42;;;;;;;8.10;5.38;;;10.40;80.80;;;;;;5050703;28;20041;-48
2023/03/18 03:09:12;;;;;;;9.88;5.22;;;10.50;80.90;;;;;;5051162;28;20044;-47
2023/03/18 03:11:40;;;;;;;6.57;4.78;;;10.40;80.90;;;;;;5035982;28;20036;-48
2023/03/18 03:14:14;;;;;;;5.88;4.72;;;10.40;81.00;;;;;;5048966;28;20343;-48
2023/03/18 03:16:42;;;;;;;7.95;4.78;;;10.50;80.90;;;;;;5048550;28;20087;-49
2023/03/18 03:19:11;;;;;;;7.25;4.57;;;10.50;80.90;;;;;;5033455;28;20483;-46
2023/03/18 03:21:38;;;;;;;7.63;4.65;;;10.50;81.00;;;;;;5033297;28;20384;-48
2023/03/18 03:24:15;;;;;;;7.68;4.15;;;10.50;80.90;;;;;;5033067;28;20503;-46
2023/03/18 03:26:43;;;;;;;7.65;5.28;;;10.40;80.90;;;;;;5032938;28;20086;-46
2023/03/18 03:29:11;;;;;;;7.88;5.30;;;10.40;81.10;;;;;;5032450;28;20036;-48
2023/03/18 03:31:39;;;;;;;8.57;4.88;;;10.30;81.50;;;;;;5032205;28;20036;-49
2023/03/18 03:34:07;;;;;;;9.85;5.47;;;10.30;81.50;;;;;;5033257;28;20025;-46
2023/03/18 03:36:35;;;;;;;7.85;4.88;;;10.20;81.80;;;;;;5032878;28;20030;-47
2023/03/18 03:39:03;;;;;;;9.20;5.28;;;10.20;82.00;;;;;;5033123;28;20075;-46
2023/03/18 03:41:29;;;;;;;12.95;5.85;;;10.10;81.90;;;;;;5031912;28;20116;-45
2023/03/18 03:43:54;;;;;;;7.03;5.03;;;10.00;81.90;;;;;;5030992;28;20176;-45
2023/03/18 03:46:21;;;;;;;9.13;5.93;;;9.90;82.10;;;;;;5031717;28;20037;-45
2023/03/18 03:48:51;;;;;;;7.47;4.80;;;9.90;82.50;;;;;;5042585;28;20130;-51
2023/03/18 03:51:16;;;;;;;10.25;5.75;;;9.80;82.50;;;;;;5050086;28;20459;-47
2023/03/18 03:53:45;;;;;;;9.60;5.75;;;9.70;82.60;;;;;;5041397;28;20052;-46
2023/03/18 03:56:14;;;;;;;8.55;6.22;;;9.70;82.90;;;;;;5046225;28;20025;-46
2023/03/18 03:58:43;;;;;;;7.28;5.93;;;9.60;83.20;;;;;;5046974;28;20064;-45
2023/03/18 04:01:11;;;;;;;10.77;7.57;;;9.50;83.40;;;;;;5032688;28;20029;-46
2023/03/18 04:03:41;;;;;;;11.38;7.10;;;9.50;83.80;;;;;;5032382;28;20030;-45
2023/03/18 04:06:10;;;;;;;11.48;6.32;;;9.50;83.80;;;;;;5033144;28;20033;-45
2023/03/18 04:08:38;;;;;;;9.63;6.93;;;9.50;84.20;;;;;;5032527;28;20037;-46
2023/03/18 04:11:05;;;;;;;10.65;7.47;;;9.50;84.10;;;;;;5032590;28;20366;-45
2023/03/18 04:13:33;;;;;;;8.93;6.75;;;9.50;84.20;;;;;;5032774;28;20108;-47
2023/03/18 04:15:59;;;;;;;10.80;7.28;;;9.50;84.20;;;;;;5036612;28;20040;-46
2023/03/18 04:18:24;;;;;;;10.82;7.70;;;9.60;84.30;;;;;;5052556;28;20387;-45
2023/03/18 04:20:51;;;;;;;12.45;9.73;;;9.60;84.40;;;;;;5046843;28;20029;-47
2023/03/18 04:23:19;;;;;;;13.10;9.48;;;9.60;84.50;;;;;;5042990;28;20458;-45
2023/03/18 04:25:46;;;;;;;18.30;10.27;;;9.60;84.60;;;;;;5044904;28;20492;-45
2023/03/18 04:28:13;;;;;;;14.15;11.00;;;9.60;84.70;;;;;;5051882;28;20343;-50
2023/03/18 04:30:39;;;;;;;15.20;10.32;;;9.70;85.00;;;;;;5042856;28;20025;-45
2023/03/18 04:33:05;;;;;;;14.80;10.43;;;9.70;85.00;;;;;;5032327;28;20030;-46
2023/03/18 04:35:33;;;;;;;14.05;9.98;;;9.70;85.00;;;;;;5032142;28;20626;-45
2023/03/18 04:38:01;;;;;;;17.45;12.15;;;9.70;85.10;;;;;;5047705;28;20065;-47
2023/03/18 04:40:29;;;;;;;13.75;11.55;;;9.70;85.20;;;;;;5031022;28;20022;-46
2023/03/18 04:42:57;;;;;;;17.90;14.10;;;9.70;85.30;;;;;;5032816;28;20034;-45
2023/03/18 04:45:24;;;;;;;16.83;14.00;;;9.70;85.50;;;;;;5050186;28;20418;-45
2023/03/18 04:47:54;;;;;;;18.48;14.90;;;9.80;85.70;;;;;;5052445;28;20071;-45
2023/03/18 04:50:22;;;;;;;19.52;14.63;;;9.80;85.70;;;;;;5051200;28;20048;-47
2023/03/18 04:52:50;;;;;;;20.35;16.30;;;9.80;85.90;;;;;;5036215;28;20448;-46
2023/03/18 04:55:19;;;;;;;22.45;15.95;;;9.80;85.90;;;;;;5033763;28;20029;-45
2023/03/18 04:57:49;;;;;;;19.10;16.00;;;9.80;86.00;;;;;;5035847;28;20033;-48
2023/03/18 05:00:23;;;;;;;24.33;17.42;;;9.80;86.10;;;;;;5035027;28;20056;-45
2023/03/18 05:02:51;;;;;;;19.80;17.55;;;9.80;86.20;;;;;;5035623;28;20036;-46
2023/03/18 05:05:19;;;;;;;20.30;16.13;;;9.80;86.30;;;;;;5040986;28;20033;-46
2023/03/18 05:07:46;;;;;;;24.02;18.25;;;9.80;86.20;;;;;;5053255;28;20061;-46
2023/03/18 05:10:14;;;;;;;21.25;17.92;;;9.70;86.20;;;;;;5055406;28;20029;-46
2023/03/18 05:12:42;;;;;;;25.95;19.77;;;9.70;86.50;;;;;;5055372;28;20442;-45
2023/03/18 05:15:10;;;;;;;21.98;19.73;;;9.70;86.50;;;;;;5035561;28;20572;-44
2023/03/18 05:17:39;;;;;;;23.25;20.45;;;9.60;86.70;;;;;;5035057;28;20033;-47
2023/03/18 05:20:07;;;;;;;25.20;20.52;;;9.60;86.70;;;;;;5034993;28;20147;-46
2023/03/18 05:22:37;;;;;;;27.20;20.52;;;9.60;86.90;;;;;;5035520;28;20033;-46
2023/03/18 05:25:05;;;;;;;31.67;24.15;;;9.60;87.10;;;;;;5035480;28;20025;-46
2023/03/18 05:27:32;;;;;;;30.10;24.25;;;9.60;87.20;;;;;;5036413;28;20033;-45
2023/03/18 05:29:59;;;;;;;30.27;24.45;;;9.60;87.30;;;;;;5037311;28;20060;-48
2023/03/18 05:32:27;;;;;;;27.08;22.48;;;9.60;87.40;;;;;;5055509;28;20112;-48
2023/03/18 05:34:55;;;;;;;26.35;22.02;;;9.60;87.50;;;;;;5061038;28;20037;-48
2023/03/18 05:37:21;;;;;;;32.92;24.95;;;9.60;87.60;;;;;;5054801;28;20112;-46
2023/03/18 05:39:49;;;;;;;31.65;25.35;;;9.60;87.60;;;;;;5048684;28;20104;-46
2023/03/18 05:42:22;;;;;;;34.40;24.60;;;9.70;87.60;;;;;;5053462;28;20033;-50
2023/03/18 05:44:48;;;;;;;31.23;25.27;;;9.70;87.70;;;;;;5054903;28;20025;-47
2023/03/18 05:47:18;;;;;;;30.77;25.55;;;9.70;87.80;;;;;;5043094;28;20494;-46
2023/03/18 05:49:47;;;;;;;31.13;25.52;;;9.70;87.80;;;;;;5053453;28;20029;-47
2023/03/18 05:52:13;;;;;;;30.08;25.55;;;9.70;87.80;;;;;;5052616;28;20029;-48
2023/03/18 05:54:42;;;;;;;29.10;25.63;;;9.60;87.90;;;;;;5049503;28;20047;-47
2023/03/18 05:57:10;;;;;;;;;;;9.60;87.90;;;;;;5035458;28;20029;-48
2023/03/18 05:59:37;;;;;;;29.20;24.58;;;9.70;88.00;;;;;;5041615;28;19916;-47
2023/03/18 06:02:05;;;;;;;29.48;24.92;;;9.70;88.00;;;;;;5045851;28;20021;-50
2023/03/18 06:04:31;;;;;;;30.20;25.05;;;9.70;88.00;;;;;;5050916;28;20514;-48
2023/03/18 06:07:04;;;;;;;31.98;27.38;;;9.70;88.00;;;;;;5033702;28;20068;-45
2023/03/18 06:09:34;;;;;;;30.02;26.85;;;9.70;88.00;;;;;;5034192;28;20042;-46
2023/03/18 06:12:02;;;;;;;30.95;27.05;;;9.70;88.10;;;;;;5033333;28;20042;-47
2023/03/18 06:14:28;;;;;;;36.05;30.63;;;9.80;88.00;;;;;;5034085;28;20029;-47
2023/03/18 06:16:55;;;;;;;32.78;27.38;;;9.80;88.10;;;;;;5033991;28;20486;-46
2023/03/18 06:19:24;;;;;;;31.00;27.67;;;9.80;88.10;;;;;;5034451;28;20095;-47
2023/03/18 06:21:51;;;;;;;32.72;27.88;;;9.80;88.00;;;;;;5034615;28;20091;-45
2023/03/18 06:24:20;;;;;;;33.58;28.15;;;9.90;87.90;;;;;;5034511;28;20033;-46
2023/03/18 06:26:48;;;;;;;34.25;29.13;;;9.90;88.00;;;;;;5034123;28;20630;-45
2023/03/18 06:29:15;;;;;;;35.25;28.65;;;9.90;88.00;;;;;;5033884;28;20037;-45
2023/03/18 06:31:42;;;;;;;33.13;29.52;;;9.90;88.10;;;;;;5034090;28;20051;-46
2023/03/18 06:34:18;;;;;;;29.52;26.35;;;9.90;87.80;;;;;;5034340;28;20033;-45
2023/03/18 06:36:46;;;;;;;38.17;28.73;;;9.90;87.90;;;;;;5048714;28;20132;-45
2023/03/18 06:39:12;;;;;;;31.25;27.88;;;9.90;87.90;;;;;;5047573;28;20076;-45
2023/03/18 06:41:39;;;;;;;32.65;27.67;;;9.90;87.90;;;;;;5049463;28;20408;-45
2023/03/18 06:44:10;;;;;;;32.35;27.33;;;9.90;88.00;;;;;;5040218;28;20342;-45
2023/03/18 06:46:38;;;;;;;33.42;26.27;;;9.90;88.00;;;;;;5044084;28;20040;-45
2023/03/18 06:49:05;;;;;;;36.45;26.35;;;10.00;88.10;;;;;;5049237;28;20033;-45
2023/03/18 06:51:35;;;;;;;31.70;26.55;;;10.00;88.10;;;;;;5032650;28;20044;-47
2023/03/18 06:54:02;;;;;;;29.15;26.05;;;10.10;88.20;;;;;;5031922;28;20048;-45
2023/03/18 06:56:28;;;;;;;29.48;26.38;;;10.20;88.20;;;;;;5047635;28;20067;-47
2023/03/18 06:58:57;;;;;;;29.35;26.33;;;10.20;88.10;;;;;;5049896;28;20048;-46
2023/03/18 07:01:25;;;;;;;32.40;26.50;;;10.30;88.00;;;;;;5052718;28;20082;-46
2023/03/18 07:03:51;;;;;;;33.65;26.80;;;10.40;87.90;;;;;;5048236;28;20041;-45
2023/03/18 07:06:20;;;;;;;29.92;25.77;;;10.40;87.70;;;;;;5038096;28;20335;-48
2023/03/18 07:08:46;;;;;;;30.02;25.70;;;10.40;87.70;;;;;;5043316;28;20148;-46
2023/03/18 07:11:13;;;;;;;33.88;25.73;;;10.40;87.60;;;;;;5046892;28;20112;-45
2023/03/18 07:13:39;;;;;;;31.77;26.42;;;10.40;87.70;;;;;;5046805;28;20025;-50
2023/03/18 07:16:06;;;;;;;32.35;26.48;;;10.40;87.50;;;;;;5042614;28;20116;-46
2023/03/18 07:18:33;;;;;;;30.40;25.75;;;10.40;87.60;;;;;;5038015;28;20509;-45
2023/03/18 07:20:59;;;;;;;30.85;25.77;;;10.40;87.60;;;;;;5051532;28;20055;-47
2023/03/18 07:23:26;;;;;;;30.63;26.05;;;10.40;87.50;;;;;;5052375;28;20087;-46
2023/03/18 07:25:52;;;;;;;33.83;27.02;;;10.40;87.50;;;;;;5053068;28;20032;-46
2023/03/18 07:28:20;;;;;;;33.72;27.23;;;10.50;87.80;;;;;;5046189;28;20029;-50
2023/03/18 07:30:48;;;;;;;30.52;25.63;;;10.50;87.50;;;;;;5049707;28;20040;-45
2023/03/18 07:33:16;;;;;;;29.58;25.20;;;10.50;87.60;;;;;;5050059;28;20458;-45
2023/03/18 07:35:43;;;;;;;32.70;28.20;;;10.60;87.80;;;;;;5052279;28;20036;-45
2023/03/18 07:38:10;;;;;;;31.60;26.77;;;10.70;87.40;;;;;;5051378;28;20071;-45
2023/03/18 07:40:37;;;;;;;32.58;26.70;;;10.80;87.40;;;;;;5051185;28;20029;-46
2023/03/18 07:43:06;;;;;;;28.70;23.73;;;10.80;87.10;;;;;;5051778;28;20358;-45
2023/03/18 07:45:37;;;;;;;27.63;24.70;;;10.80;87.00;;;;;;5052052;28;20017;-46
2023/03/18 07:48:06;;;;;;;29.08;26.00;;;10.90;87.00;;;;;;5051250;28;20087;-46
2023/03/18 07:50:34;;;;;;;32.92;26.13;;;10.80;87.00;;;;;;5051335;28;20396;-45
2023/03/18 07:52:59;;;;;;;30.60;24.83;;;10.80;87.10;;;;;;5051343;28;20048;-45
2023/03/18 07:55:27;;;;;;;28.15;23.67;;;10.90;87.30;;;;;;5032956;28;20045;-45
2023/03/18 07:57:54;;;;;;;27.92;23.55;;;10.90;87.40;;;;;;5035553;28;20121;-50
2023/03/18 08:00:22;;;;;;;26.25;21.73;;;11.00;87.30;;;;;;5051636;28;20511;-46
2023/03/18 08:02:51;;;;;;;32.88;22.85;;;11.10;87.40;;;;;;5052419;28;20092;-48
2023/03/18 08:05:21;;;;;;;27.55;21.35;;;11.20;87.00;;;;;;5050698;28;20076;-45
2023/03/18 08:07:48;;;;;;;30.10;22.60;;;11.20;87.00;;;;;;5053600;28;20030;-46
2023/03/18 08:10:15;;;;;;;24.52;19.73;;;11.30;86.90;;;;;;5034318;28;20112;-47
2023/03/18 08:12:43;;;;;;;22.73;20.17;;;11.40;86.80;;;;;;5049238;28;20037;-46
2023/03/18 08:15:11;;;;;;;24.33;21.75;;;11.40;86.70;;;;;;5049565;28;20085;-48
2023/03/18 08:17:38;;;;;;;22.38;19.35;;;11.50;86.80;;;;;;5051851;28;20040;-46
2023/03/18 08:20:08;;;;;;;23.48;19.83;;;11.40;86.50;;;;;;5051675;28;20017;-50
2023/03/18 08:22:34;;;;;;;;;;;11.40;86.60;;;;;;5044704;28;20075;-48
2023/03/18 08:25:03;;;;;;;23.17;19.55;;;11.40;86.90;;;;;;5034605;28;19917;-48
2023/03/18 08:27:30;;;;;;;25.10;20.30;;;11.40;87.30;;;;;;5047536;28;20135;-46
2023/03/18 08:29:59;;;;;;;25.20;21.38;;;11.50;87.50;;;;;;5049297;28;20037;-49
2023/03/18 08:32:26;;;;;;;26.45;20.60;;;11.50;87.50;;;;;;5055557;28;20484;-49
2023/03/18 08:34:53;;;;;;;25.63;22.20;;;11.60;87.10;;;;;;5053381;28;20024;-46
2023/03/18 08:37:21;;;;;;;30.60;23.30;;;11.60;86.90;;;;;;5050508;28;20029;-47
2023/03/18 08:39:50;;;;;;;28.45;22.45;;;11.60;87.00;;;;;;5054689;28;20349;-48
2023/03/18 08:42:18;;;;;;;27.85;22.63;;;11.60;87.00;;;;;;5053020;28;20139;-47
2023/03/18 08:44:46;;;;;;;24.88;21.15;;;11.80;86.90;;;;;;5055677;28;20879;-46
2023/03/18 08:47:14;;;;;;;24.58;20.95;;;11.90;86.80;;;;;;5055123;28;20048;-48
2023/03/18 08:49:42;;;;;;;24.92;20.35;;;12.00;86.10;;;;;;5055021;28;20045;-46
2023/03/18 08:52:13;;;;;;;21.98;19.38;;;12.10;85.80;;;;;;5050466;28;20033;-46
2023/03/18 08:54:40;;;;;;;24.20;20.92;;;12.20;85.70;;;;;;5035738;28;20099;-50
2023/03/18 08:57:11;;;;;;;24.73;21.15;;;12.20;85.10;;;;;;5052298;28;20033;-48
2023/03/18 08:59:38;;;;;;;22.73;20.00;;;12.20;85.10;;;;;;5055146;28;20025;-46
2023/03/18 09:02:05;;;;;;;23.83;19.33;;;12.20;84.90;;;;;;5052424;28;20100;-49
2023/03/18 09:04:31;;;;;;;22.40;19.40;;;12.10;85.00;;;;;;5036581;28;20025;-46
2023/03/18 09:07:02;;;;;;;22.95;20.35;;;12.20;85.20;;;;;;5044008;28;20021;-46
2023/03/18 09:09:29;;;;;;;20.13;17.92;;;12.10;85.30;;;;;;5038290;28;20037;-47
2023/03/18 09:11:57;;;;;;;24.50;19.48;;;12.10;85.50;;;;;;5046353;28;20446;-48
2023/03/18 09:14:23;;;;;;;21.20;18.90;;;12.00;85.50;;;;;;5041972;28;20358;-47
2023/03/18 09:16:50;;;;;;;24.73;18.80;;;11.90;86.10;;;;;;5054414;28;20385;-47
2023/03/18 09:19:15;;;;;;;19.25;17.23;;;12.00;86.30;;;;;;5053164;28;20028;-52
2023/03/18 09:21:43;;;;;;;19.75;17.20;;;12.00;86.40;;;;;;5047831;28;20025;-47
2023/03/18 09:24:10;;;;;;;18.00;14.45;;;12.10;86.50;;;;;;5045095;28;20063;-49
2023/03/18 09:26:38;;;;;;;16.58;14.00;;;12.10;86.50;;;;;;5054623;28;20049;-48
2023/03/18 09:29:06;;;;;;;16.85;14.68;;;12.10;86.60;;;;;;5054607;28;20035;-48
2023/03/18 09:31:33;;;;;;;17.75;14.65;;;12.20;86.80;;;;;;5048322;28;20025;-46
2023/03/18 09:34:01;;;;;;;19.20;14.93;;;12.30;86.40;;;;;;5048934;28;20026;-47
2023/03/18 09:36:31;;;;;;;24.25;17.92;;;12.40;86.50;;;;;;5040851;28;20032;-49
2023/03/18 09:38:59;;;;;;;22.48;18.30;;;12.60;85.60;;;;;;5048189;28;20021;-47
2023/03/18 09:42:01;;;;;;;23.13;18.40;;;12.80;85.20;;;;;;5046732;28;20047;-51
2023/03/18 09:44:32;;;;;;;20.58;17.38;;;13.10;85.00;;;;;;5047504;28;20108;-48
2023/03/18 09:47:19;;;;;;;24.08;19.10;;;13.20;83.60;;;;;;5051413;28;20030;-47
2023/03/18 09:50:32;;;;;;;21.23;18.70;;;13.40;83.50;;;;;;5034636;28;20030;-48
2023/03/18 09:53:25;;;;;;;19.65;17.58;;;13.60;81.90;;;;;;5034422;28;20128;-46
2023/03/18 09:56:05;;;;;;;20.15;17.98;;;13.70;81.30;;;;;;5052616;28;20032;-51
2023/03/18 09:59:06;;;;;;;22.58;17.83;;;13.60;81.60;;;;;;5051594;28;20107;-46
2023/03/18 10:01:41;;;;;;;20.45;17.33;;;13.70;81.70;;;;;;5049891;28;20029;-50
2023/03/18 10:04:38;;;;;;;19.70;17.70;;;13.70;81.60;;;;;;5045507;28;20040;-48
2023/03/18 10:07:17;;;;;;;19.90;16.65;;;13.80;81.40;;;;;;5050350;28;20040;-46
2023/03/18 10:09:59;;;;;;;20.58;17.15;;;13.80;80.70;;;;;;5053174;28;20033;-48
2023/03/18 10:12:44;;;;;;;17.70;15.82;;;13.90;80.30;;;;;;5047620;28;20116;-50
2023/03/18 10:15:33;;;;;;;18.70;16.67;;;14.00;81.00;;;;;;5038530;28;20406;-49
2023/03/18 10:18:26;;;;;;;18.05;16.13;;;14.00;80.50;;;;;;5049891;28;20327;-48
2023/03/18 10:21:05;;;;;;;19.92;16.63;;;14.40;80.30;;;;;;5045327;28;20040;-48
2023/03/18 10:23:51;;;;;;;17.07;14.37;;;14.60;79.30;;;;;;5034154;28;20033;-51
2023/03/18 10:26:56;;;;;;;17.38;15.57;;;14.70;78.40;;;;;;5047479;28;20320;-46
2023/03/18 10:29:51;;;;;;;16.15;13.63;;;14.60;79.00;;;;;;5044416;28;20351;-46
2023/03/18 10:32:48;;;;;;;18.38;14.40;;;14.60;78.30;;;;;;5049925;28;20442;-46
2023/03/18 10:35:42;;;;;;;17.58;14.77;;;14.40;78.10;;;;;;5035441;28;20358;-49
2023/03/18 10:38:30;;;;;;;15.38;13.73;;;14.50;79.70;;;;;;5048339;28;20037;-47
2023/03/18 10:41:02;;;;;;;15.82;14.23;;;14.90;79.10;;;;;;5045767;28;20029;-46
2023/03/18 10:43:31;;;;;;;13.73;11.80;;;15.00;78.10;;;;;;5039663;28;20032;-46
2023/03/18 10:46:03;;;;;;;15.82;12.57;;;15.20;76.80;;;;;;5048706;28;20111;-48
2023/03/18 10:48:53;;;;;;;16.38;13.13;;;15.10;77.10;;;;;;5047274;28;20124;-46
2023/03/18 10:51:51;;;;;;;16.08;14.23;;;15.00;76.20;;;;;;5045354;28;20025;-48
2023/03/18 10:54:38;;;;;;;18.25;14.73;;;14.90;77.70;;;;;;5043779;28;20342;-48
2023/03/18 10:57:14;;;;;;;19.13;15.52;;;14.80;77.80;;;;;;5048919;28;20825;-46
2023/03/18 10:59:46;;;;;;;18.58;14.40;;;14.70;78.10;;;;;;5051141;28;20083;-46
2023/03/18 11:02:35;;;;;;;15.65;12.45;;;14.70;78.10;;;;;;5051126;28;20108;-46
2023/03/18 11:05:15;;;;;;;19.95;14.48;;;14.70;77.90;;;;;;5045964;28;20124;-45
2023/03/18 11:08:10;;;;;;;16.08;13.90;;;14.70;78.20;;;;;;5047635;28;20033;-47
2023/03/18 11:10:57;;;;;;;14.43;12.00;;;14.90;78.60;;;;;;5041461;28;20044;-47
2023/03/18 11:13:25;;;;;;;16.17;13.07;;;14.90;78.00;;;;;;5042086;28;20032;-47
2023/03/18 11:16:29;;;;;;;18.15;11.65;;;15.00;77.30;;;;;;5040680;28;20069;-46
2023/03/18 11:18:55;;;;;;;14.20;11.80;;;15.00;77.00;;;;;;5036068;28;20053;-46
2023/03/18 11:21:24;;;;;;;14.02;12.43;;;14.90;77.30;;;;;;5050152;28;20068;-49
2023/03/18 11:24:23;;;;;;;15.55;12.85;;;14.90;77.00;;;;;;5044837;28;20095;-47
2023/03/18 11:26:55;;;;;;;17.08;12.30;;;14.90;77.60;;;;;;5040451;28;20116;-45
2023/03/18 11:29:32;;;;;;;15.32;12.05;;;14.90;77.70;;;;;;5051864;28;20017;-47
2023/03/18 11:32:30;;;;;;;15.63;12.55;;;15.10;77.40;;;;;;5030424;28;20037;-46
2023/03/18 11:35:20;;;;;;;14.77;11.60;;;15.20;77.00;;;;;;5033957;28;20116;-46
2023/03/18 11:37:47;;;;;;;15.98;12.48;;;15.40;76.60;;;;;;5047682;28;20029;-46
2023/03/18 11:40:25;;;;;;;14.25;11.32;;;15.50;76.00;;;;;;5048910;28;20037;-48
2023/03/18 11:43:03;;;;;;;14.27;11.52;;;15.60;76.00;;;;;;5037628;28;20139;-47
2023/03/18 11:46:09;;;;;;;16.30;13.00;;;15.40;75.90;;;;;;5044709;28;20025;-46
2023/03/18 11:48:51;;;;;;;13.15;11.45;;;15.40;75.50;;;;;;4971978;28;20035;-48
2023/03/18 11:51:34;;;;;;;15.93;11.93;;;15.20;76.30;;;;;;4989334;28;20096;-46
2023/03/18 11:54:21;;;;;;;12.77;10.02;;;15.10;76.40;;;;;;4981323;28;20039;-46
2023/03/18 11:57:20;;;;;;;13.23;10.88;;;15.10;77.00;;;;;;4980595;28;20039;-47
2023/03/18 12:00:25;;;;;;;14.27;10.93;;;15.20;77.20;;;;;;4987450;28;20027;-45
2023/03/18 12:03:15;;;;;;;16.60;11.68;;;15.40;77.30;;;;;;4989736;28;20034;-45
2023/03/18 12:06:28;;;;;;;12.43;9.65;;;15.60;76.30;;;;;;4992644;28;20023;-49
2023/03/18 12:09:15;;;;;;;12.57;11.05;;;15.90;76.40;;;;;;4993909;28;20040;-46
2023/03/18 12:12:21;;;;;;;14.05;9.50;;;16.30;75.00;;;;;;4994435;28;20026;-48
2023/03/18 12:15:08;;;;;;;14.57;8.90;;;16.70;74.80;;;;;;4994708;28;20069;-45
2023/03/18 12:18:05;;;;;;;10.90;7.97;;;16.80;72.00;;;;;;4992300;28;20054;-48
2023/03/18 12:20:53;;;;;;;14.55;8.85;;;16.90;71.90;;;;;;4993545;28;20052;-46
2023/03/18 12:23:53;;;;;;;12.38;9.00;;;17.00;70.90;;;;;;5024864;28;20033;-46
2023/03/18 12:26:46;;;;;;;10.98;8.20;;;16.80;70.40;;;;;;5035223;28;20065;-45
2023/03/18 12:29:50;;;;;;;8.27;6.03;;;16.50;71.70;;;;;;5043043;28;20018;-45
2023/03/18 12:32:27;;;;;;;11.90;6.43;;;16.00;70.30;;;;;;5043244;28;20029;-47
2023/03/18 12:35:18;;;;;;;9.32;6.80;;;15.70;72.10;;;;;;5040578;28;20020;-46
2023/03/18 12:38:21;;;;;;;15.80;7.22;;;15.40;72.90;;;;;;5046355;28;20033;-46
2023/03/18 12:41:09;;;;;;;10.20;6.63;;;15.40;73.50;;;;;;5035517;28;20029;-46
2023/03/18 12:44:00;;;;;;;10.68;7.32;;;15.20;73.60;;;;;;5035270;28;20486;-46
2023/03/18 12:46:46;;;;;;;9.57;6.00;;;15.30;74.00;;;;;;5050855;28;20029;-48
2023/03/18 12:49:24;;;;;;;10.32;6.78;;;15.30;74.10;;;;;;5034450;28;20057;-46
2023/03/18 12:52:14;;;;;;;9.20;7.18;;;15.20;74.70;;;;;;5051995;28;20037;-48
2023/03/18 12:54:54;;;;;;;8.40;6.30;;;15.20;74.40;;;;;;5047923;28;20037;-50
2023/03/18 12:57:39;;;;;;;9.25;6.03;;;15.40;74.80;;;;;;5036565;28;20060;-49
2023/03/18 13:00:22;;;;;;;8.93;6.45;;;15.60;74.10;;;;;;5036467;28;20022;-46
2023/03/18 13:03:13;;;;;;;11.02;6.65;;;15.60;74.20;;;;;;5037745;28;20110;-47
2023/03/18 13:05:52;;;;;;;9.40;7.45;;;15.70;74.20;;;;;;5052506;28;20029;-46
2023/03/18 13:08:48;;;;;;;11.85;7.05;;;15.70;74.50;;;;;;5040876;28;20029;-46